Time;durP1;ratioP1;P1;durP2;ratioP2;P2;SDS_P1;SDS_P2;PMS_P1;PMS_P2;Temp;Humidity;BMP_temperature;BMP_pressure;BME280_temperature;BME280_humidity;BME280_pressure;Samples;Min_cycle;Max_cycle;Signal;HPM_P1;HPM_P2
2022/04/14 00:02:09;;;;;;;3.13;1.90;;;;;;;18.06;38.53;96827.09;5073124;28;20035;-25
2022/04/14 00:04:35;;;;;;;4.35;2.08;;;;;;;18.09;38.25;96826.19;5073195;28;20478;-25
2022/04/14 00:07:04;;;;;;;3.70;1.70;;;;;;;18.11;38.07;96831.22;5073332;28;20439;-25
2022/04/14 00:09:29;;;;;;;4.00;1.95;;;;;;;18.11;38.13;96828.47;5072993;28;20045;-25
2022/04/14 00:11:55;;;;;;;3.22;1.80;;;;;;;18.14;38.11;96828.31;5073241;28;20027;-25
2022/04/14 00:14:22;;;;;;;2.97;1.90;;;;;;;18.11;38.31;96837.47;5073508;28;20063;-25
2022/04/14 00:16:47;;;;;;;3.00;1.60;;;;;;;18.11;38.20;96829.22;5073101;28;20025;-25
2022/04/14 00:19:13;;;;;;;3.15;1.75;;;;;;;18.12;38.24;96828.00;5071825;28;20507;-25
2022/04/14 00:21:39;;;;;;;2.83;1.88;;;;;;;18.10;38.24;96829.69;5072975;28;20391;-25
2022/04/14 00:24:04;;;;;;;2.30;1.80;;;;;;;18.04;38.13;96826.84;5071765;28;20055;-25
2022/04/14 00:26:30;;;;;;;2.75;1.55;;;;;;;18.09;38.12;96826.19;5072857;28;20118;-25
2022/04/14 00:28:56;;;;;;;2.92;1.50;;;;;;;18.06;38.25;96831.84;5073170;28;20020;-25
2022/04/14 00:31:21;;;;;;;1.38;1.27;;;;;;;18.10;38.01;96833.19;5073085;28;20021;-25
2022/04/14 00:33:49;;;;;;;2.78;1.80;;;;;;;18.09;37.78;96828.94;5073105;28;20037;-25
2022/04/14 00:36:15;;;;;;;2.45;1.73;;;;;;;17.98;38.23;96836.16;5071892;28;20031;-25
2022/04/14 00:38:41;;;;;;;3.17;1.88;;;;;;;18.09;38.33;96842.66;5072959;28;20028;-25
2022/04/14 00:41:07;;;;;;;2.15;1.23;;;;;;;18.05;38.23;96841.31;5072892;28;20506;-25
2022/04/14 00:43:35;;;;;;;2.60;1.95;;;;;;;18.11;37.92;96840.22;5074505;28;20435;-25
2022/04/14 00:46:02;;;;;;;4.80;1.60;;;;;;;18.01;38.20;96836.00;5076597;28;20040;-25
2022/04/14 00:48:28;;;;;;;2.35;1.65;;;;;;;17.98;38.24;96836.91;5076599;28;20465;-25
2022/04/14 00:50:56;;;;;;;2.20;1.33;;;;;;;18.07;38.06;96841.59;5076614;28;20396;-25
2022/04/14 00:53:22;;;;;;;2.28;1.40;;;;;;;18.05;38.16;96838.56;5076700;28;20025;-25
2022/04/14 00:55:49;;;;;;;2.58;1.70;;;;;;;18.01;38.12;96835.22;5076491;28;20346;-26
2022/04/14 00:58:15;;;;;;;3.33;1.48;;;;;;;18.05;38.06;96839.31;5076430;28;20502;-25
2022/04/14 01:00:41;;;;;;;1.98;1.42;;;;;;;18.11;37.63;96840.22;5076611;28;20038;-25
2022/04/14 01:03:06;;;;;;;1.92;1.33;;;;;;;18.11;37.90;96844.94;5076262;28;20372;-25
2022/04/14 01:05:33;;;;;;;1.98;1.30;;;;;;;18.10;37.88;96846.91;5074895;28;20052;-25
2022/04/14 01:07:59;;;;;;;2.85;1.42;;;;;;;18.03;37.92;96843.78;5076300;28;20031;-25
2022/04/14 01:10:25;;;;;;;2.85;1.63;;;;;;;18.03;38.22;96850.03;5074662;28;20605;-25
2022/04/14 01:12:52;;;;;;;3.30;1.50;;;;;;;18.01;37.69;96855.22;5076232;28;20036;-25
2022/04/14 01:15:18;;;;;;;2.70;1.33;;;;;;;18.02;38.03;96847.72;5076249;28;20025;-25
2022/04/14 01:17:45;;;;;;;3.60;1.73;;;;;;;17.96;37.92;96850.34;5074805;28;20024;-25
2022/04/14 01:20:13;;;;;;;2.30;1.30;;;;;;;18.05;37.96;96844.78;5075930;28;20033;-25
2022/04/14 01:23:09;;;;;;;2.67;1.85;;;;;;;17.99;37.85;96843.94;5074749;28;20064;-25
2022/04/14 01:25:36;;;;;;;2.80;1.60;;;;;;;18.02;38.06;96845.75;5066423;28;20493;-25
2022/04/14 01:28:02;;;;;;;2.50;1.50;;;;;;;18.00;37.99;96837.22;5076026;28;20028;-25
2022/04/14 01:30:29;;;;;;;2.83;1.50;;;;;;;17.99;38.00;96835.69;5074462;28;20029;-25
2022/04/14 01:32:55;;;;;;;2.65;1.45;;;;;;;18.04;37.93;96840.56;5076113;28;20373;-25
2022/04/14 01:35:21;;;;;;;2.88;1.50;;;;;;;17.95;38.07;96843.34;5075730;28;20024;-25
2022/04/14 01:37:47;;;;;;;2.38;1.30;;;;;;;17.94;38.30;96847.28;5075632;28;20032;-25
2022/04/14 01:40:13;;;;;;;3.17;1.50;;;;;;;17.93;37.95;96841.03;5075671;28;20397;-25
2022/04/14 01:42:39;;;;;;;2.50;1.55;;;;;;;17.93;38.00;96837.53;5075619;28;20469;-25
2022/04/14 01:45:10;;;;;;;2.17;1.40;;;;;;;17.98;37.94;96836.91;5075461;28;20026;-25
2022/04/14 01:47:43;;;;;;;2.22;1.30;;;;;;;17.91;38.15;96838.03;5074304;28;20024;-25
2022/04/14 01:50:12;;;;;;;2.08;1.48;;;;;;;17.95;38.09;96835.09;5075117;28;20029;-25
2022/04/14 01:52:38;;;;;;;2.30;1.60;;;;;;;17.97;38.18;96838.13;5075494;28;20028;-25
2022/04/14 01:55:05;;;;;;;2.25;1.52;;;;;;;17.89;38.19;96832.25;5075291;28;20070;-25
2022/04/14 01:57:30;;;;;;;1.77;1.40;;;;;;;17.94;38.16;96836.31;5075378;28;20025;-25
2022/04/14 02:00:00;;;;;;;2.40;1.65;;;;;;;17.92;38.19;96831.31;5075441;28;20423;-25
2022/04/14 02:02:26;;;;;;;2.80;1.35;;;;;;;17.96;38.07;96833.88;5075666;28;20054;-25
2022/04/14 02:04:52;;;;;;;2.80;1.60;;;;;;;17.89;38.08;96834.22;5075193;28;20492;-25
2022/04/14 02:07:18;;;;;;;2.08;1.38;;;;;;;17.88;38.57;96840.94;5075201;28;20036;-25
2022/04/14 02:09:44;;;;;;;2.67;1.55;;;;;;;17.87;38.33;96845.66;5073569;28;20048;-25
2022/04/14 02:12:12;;;;;;;2.85;1.42;;;;;;;17.87;38.35;96842.16;5075093;28;20032;-25
2022/04/14 02:14:39;;;;;;;1.90;1.48;;;;;;;17.91;38.24;96840.00;5073799;28;20103;-25
2022/04/14 02:17:05;;;;;;;3.10;1.42;;;;;;;17.89;38.24;96832.25;5075144;28;20020;-25
2022/04/14 02:19:31;;;;;;;2.92;1.40;;;;;;;17.92;38.31;96833.31;5075161;28;20020;-25
2022/04/14 02:21:58;;;;;;;1.90;1.42;;;;;;;17.88;38.43;96832.72;5075058;28;20495;-25
2022/04/14 02:24:25;;;;;;;1.92;1.25;;;;;;;17.82;38.31;96834.56;5074756;28;20035;-25
2022/04/14 02:26:51;;;;;;;2.22;1.25;;;;;;;17.89;38.41;96834.22;5074766;28;20066;-25
2022/04/14 02:29:16;;;;;;;1.95;1.50;;;;;;;17.87;38.38;96834.69;5074838;28;20092;-25
2022/04/14 02:31:42;;;;;;;2.92;1.10;;;;;;;17.91;38.28;96837.28;5074517;28;20029;-25
2022/04/14 02:34:07;;;;;;;2.53;1.23;;;;;;;17.86;38.25;96835.91;5074636;28;20432;-25
2022/04/14 02:36:33;;;;;;;2.05;1.27;;;;;;;17.87;38.40;96831.19;5075073;28;20028;-25
2022/04/14 02:38:58;;;;;;;2.65;1.30;;;;;;;17.81;38.59;96833.03;5074562;28;20385;-25
2022/04/14 02:41:24;;;;;;;2.28;1.25;;;;;;;17.84;38.49;96826.63;5074503;28;20016;-25
2022/04/14 02:43:50;;;;;;;2.67;1.48;;;;;;;17.84;38.37;96826.63;5074392;28;20033;-25
2022/04/14 02:46:16;;;;;;;1.77;1.33;;;;;;;17.81;38.52;96833.78;5074283;28;20461;-25
2022/04/14 02:48:41;;;;;;;3.20;1.35;;;;;;;17.80;38.62;96831.53;5074419;28;20111;-25
2022/04/14 02:51:07;;;;;;;1.92;1.30;;;;;;;17.81;38.52;96825.56;5074479;28;20112;-25
2022/04/14 02:53:32;;;;;;;3.58;1.77;;;;;;;17.81;38.63;96819.31;5074208;28;20052;-25
2022/04/14 02:55:58;;;;;;;2.30;1.40;;;;;;;17.81;38.58;96822.06;5074152;28;20024;-25
2022/04/14 02:58:24;;;;;;;3.25;1.58;;;;;;;17.80;38.54;96820.56;5074298;28;20452;-25
2022/04/14 03:00:50;;;;;;;1.77;1.30;;;;;;;17.79;38.57;96813.56;5074367;28;20457;-25
2022/04/14 03:03:16;;;;;;;2.05;1.35;;;;;;;17.77;38.66;96811.28;5073142;28;20021;-25
2022/04/14 03:05:42;;;;;;;2.22;1.48;;;;;;;17.80;38.56;96809.59;5073488;28;20141;-25
2022/04/14 03:08:08;;;;;;;1.80;1.23;;;;;;;17.76;38.71;96801.53;5073859;28;20071;-25
2022/04/14 03:10:33;;;;;;;1.88;1.30;;;;;;;17.82;38.42;96807.13;5072199;28;20534;-25
2022/04/14 03:12:59;;;;;;;2.72;1.40;;;;;;;17.80;38.58;96815.06;5073809;28;20073;-25
2022/04/14 03:15:24;;;;;;;3.25;1.55;;;;;;;17.72;38.77;96811.88;5073813;28;20033;-25
2022/04/14 03:17:50;;;;;;;2.45;1.33;;;;;;;17.78;38.72;96806.53;5073882;28;20032;-25
2022/04/14 03:20:16;;;;;;;2.13;1.20;;;;;;;17.73;38.42;96810.66;5073971;28;20017;-25
2022/04/14 03:22:42;;;;;;;1.90;1.35;;;;;;;17.74;38.57;96822.41;5073492;28;20024;-25
2022/04/14 03:25:10;;;;;;;2.85;1.50;;;;;;;17.79;38.60;96819.03;5072247;28;20031;-25
2022/04/14 03:27:37;;;;;;;2.15;1.40;;;;;;;17.76;38.58;96819.97;5073561;28;20024;-25
2022/04/14 03:30:06;;;;;;;2.65;1.40;;;;;;;17.70;38.54;96817.06;5073536;28;20029;-25
2022/04/14 03:32:32;;;;;;;1.92;1.30;;;;;;;17.70;38.86;96813.56;5074049;28;20067;-25
2022/04/14 03:35:04;;;;;;;3.10;1.40;;;;;;;17.72;38.69;96813.88;5073688;28;20031;-25
2022/04/14 03:37:32;;;;;;;2.08;1.30;;;;;;;17.72;38.57;96813.88;5072189;28;20016;-25
2022/04/14 03:39:58;;;;;;;2.80;1.50;;;;;;;17.73;38.70;96809.91;5073411;28;20457;-25
2022/04/14 03:42:23;;;;;;;2.03;1.17;;;;;;;17.70;38.77;96819.06;5073417;28;20074;-25
2022/04/14 03:44:49;;;;;;;2.08;1.50;;;;;;;17.70;38.51;96816.31;5073364;28;20043;-25
2022/04/14 03:47:15;;;;;;;2.40;1.30;;;;;;;17.64;38.74;96818.19;5073056;28;20016;-25
2022/04/14 03:49:40;;;;;;;2.30;1.50;;;;;;;17.70;38.70;96824.53;5073570;28;20124;-25
2022/04/14 03:52:06;;;;;;;3.90;1.50;;;;;;;17.73;38.63;96818.91;5073625;28;20016;-25
2022/04/14 03:54:31;;;;;;;3.03;1.60;;;;;;;17.70;38.68;96821.81;5073425;28;20448;-25
2022/04/14 03:56:57;;;;;;;2.83;1.20;;;;;;;17.64;38.95;96826.41;5071922;28;20056;-25
2022/04/14 03:59:23;;;;;;;4.13;1.50;;;;;;;17.64;38.83;96812.69;5073642;28;20081;-25
2022/04/14 04:01:48;;;;;;;2.40;1.38;;;;;;;17.62;38.90;96815.88;5073241;28;20031;-25
2022/04/14 04:04:14;;;;;;;2.58;1.30;;;;;;;17.63;38.97;96813.88;5073248;28;20481;-25
2022/04/14 04:06:39;;;;;;;3.95;1.55;;;;;;;17.68;38.99;96819.53;5073280;28;20358;-25
2022/04/14 04:09:05;;;;;;;3.25;1.55;;;;;;;17.66;38.96;96826.72;5072645;28;20512;-25
2022/04/14 04:11:30;;;;;;;2.78;1.80;;;;;;;17.67;38.75;96834.47;5073060;28;20032;-25
2022/04/14 04:13:55;;;;;;;4.00;1.63;;;;;;;17.59;39.05;96830.50;5073142;28;20477;-25
2022/04/14 04:16:21;;;;;;;2.72;1.60;;;;;;;17.56;39.03;96837.66;5072214;28;20028;-25
2022/04/14 04:18:46;;;;;;;3.30;1.75;;;;;;;17.60;38.94;96835.53;5077249;28;20147;-25
2022/04/14 04:21:12;;;;;;;3.92;1.45;;;;;;;17.59;38.97;96834.00;5075895;28;20392;-25
2022/04/14 04:23:37;;;;;;;2.35;1.67;;;;;;;17.65;38.71;96834.19;5077042;28;20029;-25
2022/04/14 04:26:03;;;;;;;2.40;1.58;;;;;;;17.60;38.99;96830.03;5075797;28;20025;-25
2022/04/14 04:29:07;;;;;;;3.22;1.58;;;;;;;17.62;38.81;96831.56;5077140;28;20035;-25
2022/04/14 04:31:32;;;;;;;2.10;1.40;;;;;;;17.56;39.09;96829.44;5076914;28;20039;-25
2022/04/14 04:33:58;;;;;;;2.42;1.35;;;;;;;17.63;38.82;96835.84;5077082;28;20025;-25
2022/04/14 04:36:23;;;;;;;1.95;1.48;;;;;;;17.64;38.83;96831.91;5076962;28;20141;-25
2022/04/14 04:38:49;;;;;;;2.40;1.88;;;;;;;17.60;38.76;96841.00;5076721;28;20032;-25
2022/04/14 04:41:14;;;;;;;2.30;1.45;;;;;;;17.58;38.95;96837.97;5075885;28;20040;-25
2022/04/14 04:43:39;;;;;;;2.05;1.48;;;;;;;17.62;38.97;96842.53;5075491;28;20035;-25
2022/04/14 04:46:05;;;;;;;3.03;1.58;;;;;;;17.56;38.90;96850.63;5076544;28;20090;-25
2022/04/14 04:48:31;;;;;;;2.92;1.60;;;;;;;17.57;38.97;96841.94;5076731;28;20071;-25
2022/04/14 04:50:56;;;;;;;2.92;1.30;;;;;;;17.60;38.77;96848.47;5076765;28;20016;-25
2022/04/14 04:53:22;;;;;;;2.15;1.40;;;;;;;17.57;38.87;96846.66;5076330;28;20086;-25
2022/04/14 04:55:47;;;;;;;3.10;1.85;;;;;;;17.56;38.95;96845.13;5076502;28;20036;-25
2022/04/14 04:58:14;;;;;;;2.95;1.48;;;;;;;17.56;38.93;96840.41;5076277;28;20024;-25
2022/04/14 05:00:40;;;;;;;2.88;1.95;;;;;;;17.55;38.90;96847.16;5075302;28;20028;-25
2022/04/14 05:03:10;;;;;;;3.65;1.70;;;;;;;17.55;38.89;96844.41;5076190;28;20028;-25
2022/04/14 05:05:36;;;;;;;2.22;1.52;;;;;;;17.53;38.92;96855.06;5076206;28;20070;-25
2022/04/14 05:08:02;;;;;;;2.85;1.60;;;;;;;17.63;38.96;96857.78;5076494;28;20107;-25
2022/04/14 05:10:28;;;;;;;3.92;1.40;;;;;;;17.56;38.86;96851.38;5074763;28;20532;-25
2022/04/14 05:12:54;;;;;;;2.40;1.60;;;;;;;17.56;39.15;96856.09;5076144;28;20491;-25
2022/04/14 05:15:21;;;;;;;3.03;1.60;;;;;;;17.51;38.97;96857.50;5059632;28;20398;-25
2022/04/14 05:17:46;;;;;;;3.47;1.55;;;;;;;17.55;39.14;96849.88;5054055;28;20469;-25
2022/04/14 05:20:12;;;;;;;3.22;1.65;;;;;;;17.53;39.11;96855.06;5053909;28;20061;-25
2022/04/14 05:22:37;;;;;;;2.53;1.50;;;;;;;17.49;39.29;96857.19;5053949;28;20036;-25
2022/04/14 05:25:04;;;;;;;2.75;1.45;;;;;;;17.50;39.00;96864.22;5053905;28;20103;-25
2022/04/14 05:27:29;;;;;;;5.00;1.77;;;;;;;17.45;39.20;96853.09;5068880;28;20024;-25
2022/04/14 05:29:55;;;;;;;2.58;1.70;;;;;;;17.46;39.28;96869.09;5053050;28;20029;-25
2022/04/14 05:32:21;;;;;;;3.65;1.60;;;;;;;17.52;39.18;96867.25;5053818;28;20036;-25
2022/04/14 05:34:46;;;;;;;2.75;1.75;;;;;;;17.47;39.44;96880.81;5053703;28;20034;-25
2022/04/14 05:37:12;;;;;;;3.05;1.50;;;;;;;17.53;39.07;96874.25;5053500;28;20466;-25
2022/04/14 05:39:38;;;;;;;4.07;1.75;;;;;;;17.49;39.42;96872.91;5053408;28;20036;-25
2022/04/14 05:42:04;;;;;;;3.25;1.73;;;;;;;17.52;39.20;96872.75;5053668;28;20052;-25
2022/04/14 05:44:31;;;;;;;2.63;1.65;;;;;;;17.53;39.16;96887.22;5051614;28;20032;-25
2022/04/14 05:46:56;;;;;;;2.35;1.50;;;;;;;17.58;39.02;96879.09;5053654;28;20078;-25
2022/04/14 05:49:22;;;;;;;4.65;1.67;;;;;;;17.52;39.30;96877.47;5053491;28;20025;-25
2022/04/14 05:51:47;;;;;;;3.17;1.83;;;;;;;17.54;39.33;96875.03;5053310;28;20037;-25
2022/04/14 05:54:14;;;;;;;3.88;2.00;;;;;;;17.53;39.14;96874.25;5053406;28;20476;-25
2022/04/14 05:56:40;;;;;;;3.25;1.75;;;;;;;17.54;39.23;96870.31;5053041;28;20025;-25
2022/04/14 05:59:15;;;;;;;3.45;1.83;;;;;;;17.50;39.40;96869.69;5052946;28;20033;-25
2022/04/14 06:01:42;;;;;;;3.97;2.05;;;;;;;17.55;39.24;96869.09;5052754;28;20037;-25
2022/04/14 06:04:07;;;;;;;4.05;2.35;;;;;;;17.55;39.23;96877.31;5053176;28;20068;-25
2022/04/14 06:06:33;;;;;;;6.03;2.20;;;;;;;17.51;39.30;96873.97;5051453;28;20056;-25
2022/04/14 06:08:58;;;;;;;5.25;2.63;;;;;;;17.51;39.48;96870.47;5053052;28;20052;-25
2022/04/14 06:11:24;;;;;;;4.97;2.35;;;;;;;17.52;39.42;96855.53;5053124;28;20115;-25
2022/04/14 06:13:49;;;;;;;5.32;2.05;;;;;;;17.49;39.54;96865.44;5052845;28;20025;-25
2022/04/14 06:16:14;;;;;;;3.30;1.90;;;;;;;17.55;39.54;96860.09;5052797;28;20036;-25
2022/04/14 06:18:40;;;;;;;3.55;2.03;;;;;;;17.52;39.70;96856.28;5068377;28;20043;-25
2022/04/14 06:21:05;;;;;;;2.75;1.65;;;;;;;17.58;39.39;96862.66;5072153;28;20032;-25
2022/04/14 06:23:31;;;;;;;3.05;2.08;;;;;;;17.57;39.47;96869.34;5072694;28;20073;-25
2022/04/14 06:25:56;;;;;;;4.60;2.00;;;;;;;17.53;39.74;96868.78;5072160;28;20051;-25
2022/04/14 06:28:22;;;;;;;3.67;2.20;;;;;;;17.55;39.64;96868.31;5072361;28;20492;-25
2022/04/14 06:30:47;;;;;;;3.65;2.20;;;;;;;17.55;39.42;96866.34;5071334;28;20353;-25
2022/04/14 06:33:14;;;;;;;5.25;2.35;;;;;;;17.49;39.97;96876.41;5072567;28;20050;-25
2022/04/14 06:35:40;;;;;;;4.63;2.30;;;;;;;17.49;39.86;96870.16;5072840;28;20036;-25
2022/04/14 06:38:05;;;;;;;3.78;2.22;;;;;;;17.59;39.65;96875.16;5072218;28;20027;-25
2022/04/14 06:40:31;;;;;;;4.00;2.65;;;;;;;17.57;39.61;96871.34;5071564;28;20017;-25
2022/04/14 06:42:57;;;;;;;3.35;1.80;;;;;;;17.56;39.86;96870.56;5072388;28;20099;-25
2022/04/14 06:45:22;;;;;;;4.22;2.22;;;;;;;17.50;39.94;96869.69;5072405;28;20036;-25
2022/04/14 06:47:48;;;;;;;2.75;2.00;;;;;;;17.56;39.86;96873.31;5072123;28;20032;-25
2022/04/14 06:50:13;;;;;;;4.53;1.98;;;;;;;17.52;39.93;96877.47;5071831;28;20035;-25
2022/04/14 06:52:39;;;;;;;3.33;2.00;;;;;;;17.49;39.96;96872.91;5072333;28;20030;-25
2022/04/14 06:55:07;;;;;;;3.97;2.20;;;;;;;17.53;39.83;96874.25;5072218;28;20030;-25
2022/04/14 06:57:32;;;;;;;2.25;1.77;;;;;;;17.51;40.25;96875.94;5072023;28;20101;-25
2022/04/14 06:59:58;;;;;;;3.15;2.40;;;;;;;17.35;40.66;96879.78;5072047;28;20154;-24
2022/04/14 07:02:31;;;;;;;4.13;2.50;;;;;;;17.34;40.91;96870.03;5075911;27;1391706;-26
2022/04/14 07:04:58;;;;;;;4.85;2.80;;;;;;;17.48;40.36;96868.63;5107208;28;20114;-26
2022/04/14 07:07:24;;;;;;;10.80;5.85;;;;;;;17.32;41.07;96864.25;5109240;28;20127;-26
2022/04/14 07:09:49;;;;;;;9.23;4.78;;;;;;;17.31;40.91;96868.19;5109181;28;20111;-25
2022/04/14 07:12:14;;;;;;;16.73;8.43;;;;;;;17.26;41.46;96870.81;5109101;28;20024;-26
2022/04/14 07:14:40;;;;;;;13.27;7.00;;;;;;;17.21;41.26;96870.19;5108782;28;20429;-25
2022/04/14 07:17:06;;;;;;;9.57;5.53;;;;;;;17.00;42.49;96870.38;5108968;28;20040;-25
2022/04/14 07:19:31;;;;;;;9.40;5.10;;;;;;;17.29;41.40;96861.69;5110410;28;20016;-26
2022/04/14 07:21:57;;;;;;;9.32;4.90;;;;;;;17.32;41.12;96863.47;5110926;28;20103;-26
2022/04/14 07:24:22;;;;;;;15.23;4.72;;;;;;;17.34;41.17;96861.81;5110881;28;20028;-26
2022/04/14 07:26:49;;;;;;;8.73;4.38;;;;;;;17.39;41.14;96852.97;5110660;28;20035;-26
2022/04/14 07:29:15;;;;;;;7.43;3.75;;;;;;;17.45;40.93;96856.59;5110811;28;20023;-26
2022/04/14 07:31:41;;;;;;;8.75;5.30;;;;;;;17.28;41.78;96855.44;5110545;28;20020;-26
2022/04/14 07:34:08;;;;;;;9.77;5.53;;;;;;;17.18;41.96;96864.91;5109338;28;20031;-26
2022/04/14 07:36:34;;;;;;;8.13;5.13;;;;;;;17.25;42.25;96867.31;5110234;28;20372;-26
2022/04/14 07:39:00;;;;;;;6.88;4.40;;;;;;;17.05;42.13;96867.03;5110341;28;20028;-26
2022/04/14 07:41:26;;;;;;;7.70;3.50;;;;;;;17.19;41.86;96866.41;5109840;28;20031;-25
2022/04/14 07:43:53;;;;;;;5.93;3.30;;;;;;;16.77;42.58;96864.31;5110272;28;20104;-27
2022/04/14 07:46:19;;;;;;;6.32;3.30;;;;;;;17.25;41.25;96864.56;5110942;28;20062;-30
2022/04/14 07:48:46;;;;;;;6.10;3.65;;;;;;;17.33;41.20;96865.75;5110047;28;20044;-27
2022/04/14 07:51:12;;;;;;;4.22;2.83;;;;;;;17.46;41.34;96863.59;5110481;28;20112;-27
2022/04/14 07:53:37;;;;;;;6.50;3.28;;;;;;;17.47;40.65;96870.59;5110572;28;20060;-27
2022/04/14 07:56:06;;;;;;;6.95;3.42;;;;;;;17.55;40.22;96871.06;5110097;28;20091;-27
2022/04/14 07:58:33;;;;;;;4.53;3.08;;;;;;;17.55;40.25;96863.59;5110113;28;20028;-27
2022/04/14 08:01:00;;;;;;;5.97;3.47;;;;;;;17.51;40.48;96870.47;5114684;28;20032;-27
2022/04/14 08:03:25;;;;;;;4.50;2.92;;;;;;;17.53;40.32;96871.53;5130127;27;20027;-27
2022/04/14 08:05:51;;;;;;;4.68;2.85;;;;;;;17.54;40.24;96869.53;5128765;27;20061;-27
2022/04/14 08:08:18;;;;;;;5.43;3.15;;;;;;;17.45;40.38;96875.03;5130290;27;20428;-29
2022/04/14 08:10:47;;;;;;;6.63;3.42;;;;;;;17.58;40.08;96873.63;5130880;27;20575;-27
2022/04/14 08:13:13;;;;;;;5.00;2.85;;;;;;;17.59;40.13;96864.19;5120843;27;20031;-27
2022/04/14 08:15:39;;;;;;;5.68;2.80;;;;;;;17.60;39.88;96867.69;5116967;28;20035;-27
2022/04/14 08:18:08;;;;;;;5.25;3.15;;;;;;;17.64;39.96;96862.06;5116668;28;20024;-28
2022/04/14 08:20:39;;;;;;;7.18;2.72;;;;;;;17.53;40.02;96868.78;5116634;28;20020;-28
2022/04/14 08:23:06;;;;;;;5.35;3.20;;;;;;;17.62;39.99;96867.97;5116557;28;20422;-27
2022/04/14 08:25:39;;;;;;;5.47;2.80;;;;;;;17.60;40.07;96867.69;5098373;28;20019;-27
2022/04/14 08:28:06;;;;;;;4.80;2.90;;;;;;;17.67;39.73;96866.63;5115894;28;20020;-27
2022/04/14 08:30:32;;;;;;;4.03;2.30;;;;;;;17.66;39.95;96859.63;5115973;28;20031;-27
2022/04/14 08:33:05;;;;;;;4.20;2.47;;;;;;;17.70;39.88;96858.22;5116179;28;20039;-27
2022/04/14 08:35:31;;;;;;;4.88;2.60;;;;;;;17.65;40.06;96861.59;5116695;28;20031;-27
2022/04/14 08:37:57;;;;;;;4.40;2.67;;;;;;;17.64;39.96;96862.81;5116221;28;20047;-27
2022/04/14 08:40:28;;;;;;;4.22;2.50;;;;;;;17.62;40.00;96859.00;5116184;28;20431;-28
2022/04/14 08:43:00;;;;;;;4.90;2.72;;;;;;;17.63;39.83;96863.25;5116256;28;20028;-27
2022/04/14 08:45:31;;;;;;;6.70;2.50;;;;;;;17.72;39.81;96863.25;5116283;28;20030;-27
2022/04/14 08:47:59;;;;;;;4.63;2.63;;;;;;;17.62;40.09;96853.50;5116050;28;20027;-27
2022/04/14 08:50:25;;;;;;;3.95;2.58;;;;;;;17.74;39.81;96858.06;5097656;28;20016;-28
2022/04/14 08:52:51;;;;;;;4.38;2.40;;;;;;;17.65;40.01;96860.84;5116334;28;20023;-27
2022/04/14 08:55:17;;;;;;;11.05;2.47;;;;;;;17.70;39.87;96854.72;5115885;28;20023;-28
2022/04/14 08:57:43;;;;;;;7.82;3.28;;;;;;;17.74;39.92;96860.81;5115993;28;20031;-28
2022/04/14 09:00:17;;;;;;;3.45;2.25;;;;;;;17.79;39.66;96862.94;5115748;28;20027;-28
2022/04/14 09:02:46;;;;;;;4.22;2.22;;;;;;;17.76;39.80;96861.09;5115724;28;20421;-28
2022/04/14 09:05:17;;;;;;;3.95;2.30;;;;;;;17.76;39.90;96863.84;5115568;28;20107;-27
2022/04/14 09:07:46;;;;;;;9.85;2.35;;;;;;;17.78;39.90;96864.16;5115883;28;20401;-27
2022/04/14 09:10:11;;;;;;;11.35;3.25;;;;;;;17.79;39.79;96862.94;5115749;28;20023;-28
2022/04/14 09:12:37;;;;;;;13.25;2.80;;;;;;;17.80;39.82;96867.19;5115275;28;20417;-27
2022/04/14 09:15:04;;;;;;;10.45;2.58;;;;;;;17.84;39.70;96870.50;5115522;28;20032;-28
2022/04/14 09:17:29;;;;;;;7.88;2.80;;;;;;;17.85;39.67;96872.81;5110740;28;20111;-27
2022/04/14 09:19:55;;;;;;;8.52;2.85;;;;;;;17.85;39.67;96866.56;5093059;28;20103;-27
2022/04/14 09:22:23;;;;;;;5.78;2.60;;;;;;;17.80;40.14;96870.66;5093901;28;20027;-27
2022/04/14 09:24:51;;;;;;;7.82;2.83;;;;;;;17.82;40.01;96873.72;5094287;28;20027;-27
2022/04/14 09:27:26;;;;;;;9.23;3.08;;;;;;;17.81;40.01;96865.94;5077027;28;20031;-28
2022/04/14 09:29:53;;;;;;;8.50;2.72;;;;;;;17.89;39.64;96867.91;5094754;28;20055;-27
2022/04/14 09:32:34;;;;;;;8.15;2.75;;;;;;;17.89;39.87;96867.16;5095080;28;20020;-27
2022/04/14 09:35:03;;;;;;;5.72;2.50;;;;;;;17.80;39.93;96864.47;5095033;28;20019;-27
2022/04/14 09:37:29;;;;;;;7.32;2.40;;;;;;;17.86;39.84;96860.59;5094810;28;20464;-28
2022/04/14 09:39:59;;;;;;;5.43;2.90;;;;;;;17.89;39.91;96869.91;5094625;28;20028;-28
2022/04/14 09:42:36;;;;;;;7.45;2.40;;;;;;;17.90;39.68;96874.94;5094622;28;20024;-28
2022/04/14 09:45:23;;;;;;;4.35;1.90;;;;;;;17.93;39.56;96871.22;5094540;28;20126;-27
2022/04/14 09:47:50;;;;;;;6.05;2.08;;;;;;;18.00;39.38;96877.63;5094519;28;20024;-27
2022/04/14 09:50:43;;;;;;;8.48;2.17;;;;;;;18.01;39.25;96868.94;5094568;28;20047;-28
2022/04/14 09:53:12;;;;;;;3.65;1.85;;;;;;;18.03;39.18;96858.25;5094611;28;20012;-28
2022/04/14 09:55:38;;;;;;;5.00;2.25;;;;;;;17.92;39.32;96875.22;5094434;28;20028;-27
2022/04/14 09:58:17;;;;;;;5.28;1.92;;;;;;;18.06;39.30;96873.75;5094473;28;20024;-27
2022/04/14 10:00:56;;;;;;;2.97;1.88;;;;;;;18.06;39.28;96875.75;5094203;28;21128;-27
2022/04/14 10:03:27;;;;;;;5.00;2.08;;;;;;;18.05;39.17;96872.25;5094157;28;20036;-28
2022/04/14 10:05:55;;;;;;;5.20;1.67;;;;;;;18.03;38.87;96877.47;5094388;28;20476;-27
2022/04/14 10:08:22;;;;;;;3.85;2.22;;;;;;;18.05;38.92;96875.00;5093966;28;20464;-27
2022/04/14 10:10:50;;;;;;;3.80;1.95;;;;;;;18.07;38.84;96878.03;5094333;28;20020;-27
2022/04/14 10:13:18;;;;;;;3.20;1.90;;;;;;;18.04;38.78;96876.25;5094082;28;20055;-28
2022/04/14 10:15:48;;;;;;;3.80;1.90;;;;;;;18.09;38.72;96870.09;5094294;28;20028;-27
2022/04/14 10:18:19;;;;;;;3.97;1.80;;;;;;;18.11;38.79;96873.16;5093898;28;20031;-28
2022/04/14 10:20:46;;;;;;;3.38;2.10;;;;;;;18.12;38.43;96866.44;5093773;28;20077;-29
2022/04/14 10:23:15;;;;;;;5.45;1.90;;;;;;;18.12;38.42;96871.91;5094044;28;20043;-29
2022/04/14 10:25:42;;;;;;;2.60;1.80;;;;;;;18.12;38.52;96871.16;5093977;28;20024;-28
2022/04/14 10:28:17;;;;;;;5.05;2.03;;;;;;;18.13;38.10;96865.22;5093750;28;20020;-28
2022/04/14 10:30:49;;;;;;;2.90;1.52;;;;;;;18.13;38.00;96870.69;5075729;28;20019;-27
2022/04/14 10:33:14;;;;;;;2.25;1.55;;;;;;;18.12;38.07;96863.69;5093716;28;20093;-29
2022/04/14 10:35:40;;;;;;;5.57;2.28;;;;;;;18.20;37.70;96866.84;5093854;28;20107;-27
2022/04/14 10:38:19;;;;;;;2.63;1.60;;;;;;;18.07;38.00;96867.06;5093697;28;20037;-29
2022/04/14 10:40:51;;;;;;;3.15;1.77;;;;;;;18.15;37.57;96862.00;5093878;28;20041;-27
2022/04/14 10:43:23;;;;;;;3.93;2.20;;;;;;;18.17;37.53;96862.31;5093800;28;20445;-27
2022/04/14 10:45:52;;;;;;;3.83;1.70;;;;;;;18.17;37.46;96856.81;5093670;28;20027;-29
2022/04/14 10:48:26;;;;;;;5.68;2.10;;;;;;;18.10;37.41;96860.63;5093562;28;20472;-28
2022/04/14 10:51:25;;;;;;;4.82;2.10;;;;;;;18.21;37.07;96857.38;5093532;28;20461;-27
2022/04/14 10:54:05;;;;;;;3.30;2.03;;;;;;;18.18;37.05;96852.81;5093719;28;20402;-27
2022/04/14 10:56:33;;;;;;;3.72;2.08;;;;;;;18.14;37.10;96855.75;5075436;28;20396;-29
2022/04/14 10:59:03;;;;;;;3.05;1.77;;;;;;;18.10;36.98;96863.38;5093810;28;20024;-29
2022/04/14 11:01:47;;;;;;;4.15;2.10;;;;;;;18.14;36.81;96861.25;5093225;28;20068;-27
2022/04/14 11:04:25;;;;;;;2.30;1.70;;;;;;;18.24;36.79;96854.47;5093354;28;20028;-27
2022/04/14 11:06:52;;;;;;;2.42;1.98;;;;;;;18.27;36.53;96855.53;5093381;28;20024;-27
2022/04/14 11:12:07;;;;;;;2.83;1.52;;;;;;;18.31;36.44;96854.09;5093444;28;20367;-27
2022/04/14 11:14:37;;;;;;;1.88;1.65;;;;;;;18.33;36.00;96850.13;5093330;28;20468;-28
2022/04/14 11:17:03;;;;;;;2.40;1.60;;;;;;;18.24;35.91;96851.72;5093233;28;20384;-29
2022/04/14 11:19:30;;;;;;;3.33;1.48;;;;;;;18.30;36.10;96854.56;5075257;28;20020;-30
2022/04/14 11:22:01;;;;;;;4.85;1.70;;;;;;;18.36;35.83;96843.72;5093293;28;20038;-28
2022/04/14 11:24:36;;;;;;;2.67;1.50;;;;;;;18.29;35.93;96845.59;5093253;28;20045;-27
2022/04/14 11:27:28;;;;;;;2.88;1.70;;;;;;;18.34;35.58;96851.66;5093186;28;20027;-28
2022/04/14 11:30:03;;;;;;;3.10;1.70;;;;;;;18.34;35.71;96846.94;5093633;28;20024;-27
2022/04/14 11:32:42;;;;;;;3.03;1.90;;;;;;;18.38;35.98;96841.28;5092881;28;20016;-27
2022/04/14 11:35:13;;;;;;;2.50;1.80;;;;;;;18.36;35.93;96849.22;5096193;28;20035;-28
2022/04/14 11:37:49;;;;;;;3.10;1.88;;;;;;;18.31;35.79;96843.13;5110409;28;20035;-27
2022/04/14 11:40:23;;;;;;;3.85;1.75;;;;;;;18.38;35.72;96849.50;5103855;28;20020;-27